sensor_id;sensor_type;location;lat;lon;timestamp;P1;durP1;ratioP1;P2;durP2;ratioP2
10088;SDS011;51898;49.864;8.550;2023-10-09T00:00:19;13.23;;;7.53;;
10088;SDS011;51898;49.864;8.550;2023-10-09T00:03:42;8.80;;;6.20;;
10088;SDS011;51898;49.864;8.550;2023-10-09T00:06:53;8.90;;;6.50;;
10088;SDS011;51898;49.864;8.550;2023-10-09T00:09:58;13.13;;;7.20;;
10088;SDS011;51898;49.864;8.550;2023-10-09T00:13:01;9.70;;;6.40;;
10088;SDS011;51898;49.864;8.550;2023-10-09T00:16:04;6.47;;;5.63;;
10088;SDS011;51898;49.864;8.550;2023-10-09T00:19:15;8.33;;;5.43;;
10088;SDS011;51898;49.864;8.550;2023-10-09T00:22:32;11.20;;;6.30;;
10088;SDS011;51898;49.864;8.550;2023-10-09T00:25:39;11.37;;;6.63;;
10088;SDS011;51898;49.864;8.550;2023-10-09T00:28:49;9.97;;;6.77;;
10088;SDS011;51898;49.864;8.550;2023-10-09T00:31:52;10.40;;;6.27;;
10088;SDS011;51898;49.864;8.550;2023-10-09T00:35:15;8.10;;;6.33;;
10088;SDS011;51898;49.864;8.550;2023-10-09T00:38:35;16.93;;;7.07;;
10088;SDS011;51898;49.864;8.550;2023-10-09T00:41:40;9.33;;;6.67;;
10088;SDS011;51898;49.864;8.550;2023-10-09T00:44:43;12.53;;;7.13;;
10088;SDS011;51898;49.864;8.550;2023-10-09T00:47:44;8.83;;;6.67;;
10088;SDS011;51898;49.864;8.550;2023-10-09T00:50:48;9.43;;;6.47;;
10088;SDS011;51898;49.864;8.550;2023-10-09T00:53:55;11.17;;;7.30;;
10088;SDS011;51898;49.864;8.550;2023-10-09T00:57:00;10.73;;;7.40;;
10088;SDS011;51898;49.864;8.550;2023-10-09T01:00:08;14.00;;;7.80;;
10088;SDS011;51898;49.864;8.550;2023-10-09T01:03:25;13.00;;;7.33;;
10088;SDS011;51898;49.864;8.550;2023-10-09T01:06:28;10.40;;;6.70;;
10088;SDS011;51898;49.864;8.550;2023-10-09T01:09:34;6.87;;;5.80;;
10088;SDS011;51898;49.864;8.550;2023-10-09T01:12:39;6.63;;;5.90;;
10088;SDS011;51898;49.864;8.550;2023-10-09T01:15:45;6.83;;;5.97;;
10088;SDS011;51898;49.864;8.550;2023-10-09T01:18:48;10.10;;;6.03;;
10088;SDS011;51898;49.864;8.550;2023-10-09T01:21:51;12.20;;;6.00;;
10088;SDS011;51898;49.864;8.550;2023-10-09T01:24:53;8.37;;;6.30;;
10088;SDS011;51898;49.864;8.550;2023-10-09T01:27:56;11.70;;;7.03;;
10088;SDS011;51898;49.864;8.550;2023-10-09T01:30:58;11.50;;;7.43;;
10088;SDS011;51898;49.864;8.550;2023-10-09T01:34:02;11.43;;;6.97;;
10088;SDS011;51898;49.864;8.550;2023-10-09T01:37:05;12.57;;;7.30;;
10088;SDS011;51898;49.864;8.550;2023-10-09T01:40:13;9.70;;;6.90;;
10088;SDS011;51898;49.864;8.550;2023-10-09T01:43:26;12.83;;;7.50;;
10088;SDS011;51898;49.864;8.550;2023-10-09T01:46:28;13.03;;;7.20;;
10088;SDS011;51898;49.864;8.550;2023-10-09T01:49:37;10.23;;;7.00;;
10088;SDS011;51898;49.864;8.550;2023-10-09T01:52:42;9.37;;;7.20;;
10088;SDS011;51898;49.864;8.550;2023-10-09T01:55:44;11.10;;;7.50;;
10088;SDS011;51898;49.864;8.550;2023-10-09T01:58:47;15.80;;;7.63;;
10088;SDS011;51898;49.864;8.550;2023-10-09T02:01:49;13.80;;;7.53;;
10088;SDS011;51898;49.864;8.550;2023-10-09T02:04:54;11.47;;;7.50;;
10088;SDS011;51898;49.864;8.550;2023-10-09T02:08:06;11.63;;;7.70;;
10088;SDS011;51898;49.864;8.550;2023-10-09T02:11:14;12.33;;;8.10;;
10088;SDS011;51898;49.864;8.550;2023-10-09T02:14:25;12.30;;;7.40;;
10088;SDS011;51898;49.864;8.550;2023-10-09T02:17:26;11.10;;;7.10;;
10088;SDS011;51898;49.864;8.550;2023-10-09T02:20:30;14.00;;;7.70;;
10088;SDS011;51898;49.864;8.550;2023-10-09T02:23:33;11.13;;;8.27;;
10088;SDS011;51898;49.864;8.550;2023-10-09T02:26:48;10.20;;;7.53;;
10088;SDS011;51898;49.864;8.550;2023-10-09T02:29:52;13.17;;;8.50;;
10088;SDS011;51898;49.864;8.550;2023-10-09T02:32:54;14.80;;;8.90;;
10088;SDS011;51898;49.864;8.550;2023-10-09T02:36:08;13.77;;;8.53;;
10088;SDS011;51898;49.864;8.550;2023-10-09T02:39:11;13.50;;;9.20;;
10088;SDS011;51898;49.864;8.550;2023-10-09T02:42:25;11.67;;;8.20;;
10088;SDS011;51898;49.864;8.550;2023-10-09T02:45:29;15.23;;;8.77;;
10088;SDS011;51898;49.864;8.550;2023-10-09T02:48:36;12.47;;;8.63;;
10088;SDS011;51898;49.864;8.550;2023-10-09T02:51:38;12.87;;;9.13;;
10088;SDS011;51898;49.864;8.550;2023-10-09T02:54:43;13.03;;;9.70;;
10088;SDS011;51898;49.864;8.550;2023-10-09T02:57:48;15.63;;;8.83;;
10088;SDS011;51898;49.864;8.550;2023-10-09T03:00:52;15.40;;;9.67;;
10088;SDS011;51898;49.864;8.550;2023-10-09T03:03:54;19.10;;;8.90;;
10088;SDS011;51898;49.864;8.550;2023-10-09T03:07:00;16.33;;;8.97;;
10088;SDS011;51898;49.864;8.550;2023-10-09T03:10:06;23.30;;;10.03;;
10088;SDS011;51898;49.864;8.550;2023-10-09T03:13:10;15.87;;;8.93;;
10088;SDS011;51898;49.864;8.550;2023-10-09T03:16:12;21.03;;;10.27;;
10088;SDS011;51898;49.864;8.550;2023-10-09T03:19:24;15.13;;;9.77;;
10088;SDS011;51898;49.864;8.550;2023-10-09T03:22:27;16.40;;;9.17;;
10088;SDS011;51898;49.864;8.550;2023-10-09T03:25:30;15.83;;;9.40;;
10088;SDS011;51898;49.864;8.550;2023-10-09T03:28:32;15.53;;;8.30;;
10088;SDS011;51898;49.864;8.550;2023-10-09T03:31:34;17.33;;;8.43;;
10088;SDS011;51898;49.864;8.550;2023-10-09T03:34:37;18.83;;;9.87;;
10088;SDS011;51898;49.864;8.550;2023-10-09T03:37:40;15.07;;;8.80;;
10088;SDS011;51898;49.864;8.550;2023-10-09T03:40:42;14.20;;;9.73;;
10088;SDS011;51898;49.864;8.550;2023-10-09T03:43:44;16.40;;;9.00;;
10088;SDS011;51898;49.864;8.550;2023-10-09T03:46:48;13.50;;;9.10;;
10088;SDS011;51898;49.864;8.550;2023-10-09T03:49:52;18.63;;;9.07;;
10088;SDS011;51898;49.864;8.550;2023-10-09T03:52:54;14.83;;;9.63;;
10088;SDS011;51898;49.864;8.550;2023-10-09T03:55:56;14.13;;;8.50;;
10088;SDS011;51898;49.864;8.550;2023-10-09T03:59:00;17.67;;;8.80;;
10088;SDS011;51898;49.864;8.550;2023-10-09T04:02:04;18.33;;;8.90;;
10088;SDS011;51898;49.864;8.550;2023-10-09T04:05:06;13.37;;;8.67;;
10088;SDS011;51898;49.864;8.550;2023-10-09T04:08:12;18.50;;;8.60;;
10088;SDS011;51898;49.864;8.550;2023-10-09T04:11:21;16.03;;;7.70;;
10088;SDS011;51898;49.864;8.550;2023-10-09T04:14:25;15.60;;;8.40;;
10088;SDS011;51898;49.864;8.550;2023-10-09T04:17:33;15.30;;;7.60;;
10088;SDS011;51898;49.864;8.550;2023-10-09T04:20:35;15.57;;;6.93;;
10088;SDS011;51898;49.864;8.550;2023-10-09T04:24:12;14.13;;;8.00;;
10088;SDS011;51898;49.864;8.550;2023-10-09T04:27:14;13.00;;;7.70;;
10088;SDS011;51898;49.864;8.550;2023-10-09T04:30:18;12.00;;;6.90;;
10088;SDS011;51898;49.864;8.550;2023-10-09T04:33:21;14.63;;;8.17;;
10088;SDS011;51898;49.864;8.550;2023-10-09T04:36:36;14.07;;;7.63;;
10088;SDS011;51898;49.864;8.550;2023-10-09T04:39:47;17.60;;;7.27;;
10088;SDS011;51898;49.864;8.550;2023-10-09T04:42:50;19.13;;;7.70;;
10088;SDS011;51898;49.864;8.550;2023-10-09T04:46:00;13.47;;;7.37;;
10088;SDS011;51898;49.864;8.550;2023-10-09T04:49:10;14.30;;;7.30;;
10088;SDS011;51898;49.864;8.550;2023-10-09T04:52:28;17.10;;;8.27;;
10088;SDS011;51898;49.864;8.550;2023-10-09T04:55:31;15.37;;;7.30;;
10088;SDS011;51898;49.864;8.550;2023-10-09T04:58:39;12.93;;;7.30;;
10088;SDS011;51898;49.864;8.550;2023-10-09T05:01:41;13.80;;;7.10;;
10088;SDS011;51898;49.864;8.550;2023-10-09T05:04:59;13.33;;;6.80;;
10088;SDS011;51898;49.864;8.550;2023-10-09T05:08:39;10.07;;;6.23;;
10088;SDS011;51898;49.864;8.550;2023-10-09T05:11:47;16.57;;;7.30;;
10088;SDS011;51898;49.864;8.550;2023-10-09T05:14:52;20.33;;;6.90;;
10088;SDS011;51898;49.864;8.550;2023-10-09T05:18:10;12.50;;;6.47;;
10088;SDS011;51898;49.864;8.550;2023-10-09T05:21:17;15.23;;;7.37;;
10088;SDS011;51898;49.864;8.550;2023-10-09T05:24:34;15.73;;;7.70;;
10088;SDS011;51898;49.864;8.550;2023-10-09T05:27:48;14.90;;;7.50;;
10088;SDS011;51898;49.864;8.550;2023-10-09T05:30:54;12.23;;;6.40;;
10088;SDS011;51898;49.864;8.550;2023-10-09T05:34:19;15.50;;;6.93;;
10088;SDS011;51898;49.864;8.550;2023-10-09T05:37:21;20.63;;;6.43;;
10088;SDS011;51898;49.864;8.550;2023-10-09T05:40:26;15.63;;;6.90;;
10088;SDS011;51898;49.864;8.550;2023-10-09T05:43:32;20.70;;;6.17;;
10088;SDS011;51898;49.864;8.550;2023-10-09T05:46:52;11.00;;;6.63;;
10088;SDS011;51898;49.864;8.550;2023-10-09T05:50:27;14.07;;;6.60;;
10088;SDS011;51898;49.864;8.550;2023-10-09T05:53:29;22.47;;;8.00;;
10088;SDS011;51898;49.864;8.550;2023-10-09T05:56:46;19.63;;;6.87;;
10088;SDS011;51898;49.864;8.550;2023-10-09T06:00:06;13.70;;;6.40;;
10088;SDS011;51898;49.864;8.550;2023-10-09T06:03:27;24.40;;;7.83;;
10088;SDS011;51898;49.864;8.550;2023-10-09T06:06:48;13.57;;;7.43;;
10088;SDS011;51898;49.864;8.550;2023-10-09T06:10:12;25.47;;;6.37;;
10088;SDS011;51898;49.864;8.550;2023-10-09T06:13:33;24.30;;;7.60;;
10088;SDS011;51898;49.864;8.550;2023-10-09T06:16:48;12.53;;;6.57;;
10088;SDS011;51898;49.864;8.550;2023-10-09T06:19:58;14.03;;;6.40;;
10088;SDS011;51898;49.864;8.550;2023-10-09T06:23:21;11.10;;;5.80;;
10088;SDS011;51898;49.864;8.550;2023-10-09T06:26:43;14.87;;;7.50;;
10088;SDS011;51898;49.864;8.550;2023-10-09T06:30:00;12.60;;;5.73;;
10088;SDS011;51898;49.864;8.550;2023-10-09T06:33:21;17.00;;;6.57;;
10088;SDS011;51898;49.864;8.550;2023-10-09T06:36:31;13.80;;;6.27;;
10088;SDS011;51898;49.864;8.550;2023-10-09T06:39:34;17.13;;;7.03;;
10088;SDS011;51898;49.864;8.550;2023-10-09T06:42:54;15.23;;;6.30;;
10088;SDS011;51898;49.864;8.550;2023-10-09T06:45:57;23.60;;;6.50;;
10088;SDS011;51898;49.864;8.550;2023-10-09T06:49:00;12.53;;;6.00;;
10088;SDS011;51898;49.864;8.550;2023-10-09T06:52:16;15.80;;;6.60;;
10088;SDS011;51898;49.864;8.550;2023-10-09T06:55:38;18.43;;;7.60;;
10088;SDS011;51898;49.864;8.550;2023-10-09T06:58:52;12.90;;;6.03;;
10088;SDS011;51898;49.864;8.550;2023-10-09T07:01:58;22.00;;;7.13;;
10088;SDS011;51898;49.864;8.550;2023-10-09T07:05:09;15.40;;;6.30;;
10088;SDS011;51898;49.864;8.550;2023-10-09T07:08:14;13.73;;;6.73;;
10088;SDS011;51898;49.864;8.550;2023-10-09T07:11:39;11.70;;;6.27;;
10088;SDS011;51898;49.864;8.550;2023-10-09T07:14:43;15.20;;;6.57;;
10088;SDS011;51898;49.864;8.550;2023-10-09T07:17:45;17.63;;;6.27;;
10088;SDS011;51898;49.864;8.550;2023-10-09T07:20:47;22.20;;;6.33;;
10088;SDS011;51898;49.864;8.550;2023-10-09T07:24:00;10.37;;;6.40;;
10088;SDS011;51898;49.864;8.550;2023-10-09T07:27:25;11.93;;;5.67;;
10088;SDS011;51898;49.864;8.550;2023-10-09T07:31:06;17.03;;;5.57;;
10088;SDS011;51898;49.864;8.550;2023-10-09T07:34:11;13.43;;;5.70;;
10088;SDS011;51898;49.864;8.550;2023-10-09T07:37:32;18.93;;;6.20;;
10088;SDS011;51898;49.864;8.550;2023-10-09T07:40:36;16.93;;;6.93;;
10088;SDS011;51898;49.864;8.550;2023-10-09T07:43:57;13.30;;;6.30;;
10088;SDS011;51898;49.864;8.550;2023-10-09T07:46:59;16.00;;;6.03;;
10088;SDS011;51898;49.864;8.550;2023-10-09T07:50:24;13.10;;;5.97;;
10088;SDS011;51898;49.864;8.550;2023-10-09T07:53:31;19.77;;;7.40;;
10088;SDS011;51898;49.864;8.550;2023-10-09T07:56:44;16.57;;;5.93;;
10088;SDS011;51898;49.864;8.550;2023-10-09T07:59:47;18.37;;;6.43;;
10088;SDS011;51898;49.864;8.550;2023-10-09T08:03:02;23.70;;;7.60;;
10088;SDS011;51898;49.864;8.550;2023-10-09T08:06:11;12.93;;;6.03;;
10088;SDS011;51898;49.864;8.550;2023-10-09T08:09:32;16.70;;;6.40;;
10088;SDS011;51898;49.864;8.550;2023-10-09T08:12:49;11.50;;;6.33;;
10088;SDS011;51898;49.864;8.550;2023-10-09T08:15:55;19.10;;;7.13;;
10088;SDS011;51898;49.864;8.550;2023-10-09T08:18:57;12.07;;;6.20;;
10088;SDS011;51898;49.864;8.550;2023-10-09T08:21:59;14.90;;;6.90;;
10088;SDS011;51898;49.864;8.550;2023-10-09T08:25:20;16.07;;;6.80;;
10088;SDS011;51898;49.864;8.550;2023-10-09T08:28:36;15.10;;;6.63;;
10088;SDS011;51898;49.864;8.550;2023-10-09T08:31:47;15.53;;;6.50;;
10088;SDS011;51898;49.864;8.550;2023-10-09T08:34:58;16.37;;;6.70;;
10088;SDS011;51898;49.864;8.550;2023-10-09T08:38:02;14.27;;;5.87;;
10088;SDS011;51898;49.864;8.550;2023-10-09T08:41:12;12.90;;;6.50;;
10088;SDS011;51898;49.864;8.550;2023-10-09T08:44:19;14.80;;;5.80;;
10088;SDS011;51898;49.864;8.550;2023-10-09T08:47:23;12.73;;;6.20;;
10088;SDS011;51898;49.864;8.550;2023-10-09T08:50:25;18.73;;;7.07;;
10088;SDS011;51898;49.864;8.550;2023-10-09T08:53:30;12.17;;;6.70;;
10088;SDS011;51898;49.864;8.550;2023-10-09T08:56:33;13.17;;;5.80;;
10088;SDS011;51898;49.864;8.550;2023-10-09T08:59:39;11.53;;;6.17;;
10088;SDS011;51898;49.864;8.550;2023-10-09T09:02:47;12.03;;;6.03;;
10088;SDS011;51898;49.864;8.550;2023-10-09T09:05:59;11.43;;;5.77;;
10088;SDS011;51898;49.864;8.550;2023-10-09T09:09:09;11.93;;;6.33;;
10088;SDS011;51898;49.864;8.550;2023-10-09T09:12:15;13.13;;;6.00;;
10088;SDS011;51898;49.864;8.550;2023-10-09T09:15:17;17.83;;;7.00;;
10088;SDS011;51898;49.864;8.550;2023-10-09T09:18:20;12.90;;;6.17;;
10088;SDS011;51898;49.864;8.550;2023-10-09T09:21:23;16.07;;;6.57;;
10088;SDS011;51898;49.864;8.550;2023-10-09T09:24:25;14.20;;;8.03;;
10088;SDS011;51898;49.864;8.550;2023-10-09T09:27:43;12.20;;;5.80;;
10088;SDS011;51898;49.864;8.550;2023-10-09T09:30:53;16.80;;;7.20;;
10088;SDS011;51898;49.864;8.550;2023-10-09T09:33:57;18.53;;;7.20;;
10088;SDS011;51898;49.864;8.550;2023-10-09T09:37:05;12.03;;;5.27;;
10088;SDS011;51898;49.864;8.550;2023-10-09T09:40:14;11.27;;;5.90;;
10088;SDS011;51898;49.864;8.550;2023-10-09T09:43:16;14.17;;;6.07;;
10088;SDS011;51898;49.864;8.550;2023-10-09T09:46:23;12.27;;;6.10;;
10088;SDS011;51898;49.864;8.550;2023-10-09T09:49:34;12.70;;;5.27;;
10088;SDS011;51898;49.864;8.550;2023-10-09T09:52:39;14.20;;;5.87;;
10088;SDS011;51898;49.864;8.550;2023-10-09T09:55:42;19.23;;;5.43;;
10088;SDS011;51898;49.864;8.550;2023-10-09T09:58:53;12.00;;;5.73;;
10088;SDS011;51898;49.864;8.550;2023-10-09T10:01:58;20.43;;;7.13;;
10088;SDS011;51898;49.864;8.550;2023-10-09T10:05:08;19.23;;;5.93;;
10088;SDS011;51898;49.864;8.550;2023-10-09T10:08:19;13.17;;;6.00;;
10088;SDS011;51898;49.864;8.550;2023-10-09T10:11:41;15.77;;;5.80;;
10088;SDS011;51898;49.864;8.550;2023-10-09T10:14:54;15.37;;;6.33;;
10088;SDS011;51898;49.864;8.550;2023-10-09T10:18:07;14.33;;;6.07;;
10088;SDS011;51898;49.864;8.550;2023-10-09T10:21:11;13.73;;;6.30;;
10088;SDS011;51898;49.864;8.550;2023-10-09T10:27:30;12.63;;;5.87;;
10088;SDS011;51898;49.864;8.550;2023-10-09T10:30:31;18.30;;;6.10;;
10088;SDS011;51898;49.864;8.550;2023-10-09T10:37:08;14.53;;;6.83;;
10088;SDS011;51898;49.864;8.550;2023-10-09T10:40:22;16.43;;;5.93;;
10088;SDS011;51898;49.864;8.550;2023-10-09T10:43:45;16.80;;;6.50;;
10088;SDS011;51898;49.864;8.550;2023-10-09T10:46:49;16.63;;;6.50;;
10088;SDS011;51898;49.864;8.550;2023-10-09T10:49:54;15.27;;;6.33;;
10088;SDS011;51898;49.864;8.550;2023-10-09T10:53:07;12.10;;;6.60;;
10088;SDS011;51898;49.864;8.550;2023-10-09T10:56:20;17.40;;;6.00;;
10088;SDS011;51898;49.864;8.550;2023-10-09T10:59:41;14.20;;;6.00;;
10088;SDS011;51898;49.864;8.550;2023-10-09T11:02:43;13.03;;;6.10;;
10088;SDS011;51898;49.864;8.550;2023-10-09T11:05:46;14.47;;;5.83;;
10088;SDS011;51898;49.864;8.550;2023-10-09T11:08:52;12.47;;;5.90;;
10088;SDS011;51898;49.864;8.550;2023-10-09T11:12:03;11.50;;;5.90;;
10088;SDS011;51898;49.864;8.550;2023-10-09T11:15:30;9.97;;;5.67;;
10088;SDS011;51898;49.864;8.550;2023-10-09T11:18:46;12.87;;;6.20;;
10088;SDS011;51898;49.864;8.550;2023-10-09T11:21:48;15.50;;;6.03;;
10088;SDS011;51898;49.864;8.550;2023-10-09T11:24:59;19.90;;;5.80;;
10088;SDS011;51898;49.864;8.550;2023-10-09T11:28:19;16.73;;;6.10;;
10088;SDS011;51898;49.864;8.550;2023-10-09T11:31:31;14.97;;;6.50;;
10088;SDS011;51898;49.864;8.550;2023-10-09T11:34:35;16.80;;;5.83;;
10088;SDS011;51898;49.864;8.550;2023-10-09T11:37:38;15.63;;;6.40;;
10088;SDS011;51898;49.864;8.550;2023-10-09T11:40:43;19.70;;;6.00;;
10088;SDS011;51898;49.864;8.550;2023-10-09T11:44:07;13.00;;;6.10;;
10088;SDS011;51898;49.864;8.550;2023-10-09T11:47:19;13.80;;;5.70;;
10088;SDS011;51898;49.864;8.550;2023-10-09T11:50:21;15.00;;;5.87;;
10088;SDS011;51898;49.864;8.550;2023-10-09T11:53:51;14.23;;;5.93;;
10088;SDS011;51898;49.864;8.550;2023-10-09T11:56:55;10.83;;;5.10;;
10088;SDS011;51898;49.864;8.550;2023-10-09T11:59:58;12.67;;;6.40;;
10088;SDS011;51898;49.864;8.550;2023-10-09T12:03:11;14.33;;;6.10;;
10088;SDS011;51898;49.864;8.550;2023-10-09T12:06:14;13.37;;;5.43;;
10088;SDS011;51898;49.864;8.550;2023-10-09T12:09:20;17.10;;;6.00;;
10088;SDS011;51898;49.864;8.550;2023-10-09T12:12:25;9.77;;;5.70;;
10088;SDS011;51898;49.864;8.550;2023-10-09T12:15:28;12.57;;;6.13;;
10088;SDS011;51898;49.864;8.550;2023-10-09T12:18:38;12.17;;;5.33;;
10088;SDS011;51898;49.864;8.550;2023-10-09T12:21:43;10.23;;;5.10;;
10088;SDS011;51898;49.864;8.550;2023-10-09T12:24:45;12.80;;;5.80;;
10088;SDS011;51898;49.864;8.550;2023-10-09T12:27:47;13.37;;;5.87;;
10088;SDS011;51898;49.864;8.550;2023-10-09T12:30:49;11.80;;;5.80;;
10088;SDS011;51898;49.864;8.550;2023-10-09T12:33:54;12.80;;;5.77;;
10088;SDS011;51898;49.864;8.550;2023-10-09T12:36:56;17.70;;;5.67;;
10088;SDS011;51898;49.864;8.550;2023-10-09T12:40:02;9.00;;;5.23;;
10088;SDS011;51898;49.864;8.550;2023-10-09T12:43:06;8.10;;;5.80;;
10088;SDS011;51898;49.864;8.550;2023-10-09T12:46:16;14.53;;;6.03;;
10088;SDS011;51898;49.864;8.550;2023-10-09T12:49:19;15.20;;;5.57;;
10088;SDS011;51898;49.864;8.550;2023-10-09T12:52:26;16.23;;;6.53;;
10088;SDS011;51898;49.864;8.550;2023-10-09T12:55:31;11.73;;;5.70;;
10088;SDS011;51898;49.864;8.550;2023-10-09T12:58:41;19.77;;;5.47;;
10088;SDS011;51898;49.864;8.550;2023-10-09T13:01:54;13.80;;;5.53;;
10088;SDS011;51898;49.864;8.550;2023-10-09T13:04:59;12.50;;;5.00;;
10088;SDS011;51898;49.864;8.550;2023-10-09T13:08:02;12.17;;;5.57;;
10088;SDS011;51898;49.864;8.550;2023-10-09T13:11:04;9.83;;;4.93;;
10088;SDS011;51898;49.864;8.550;2023-10-09T13:14:13;12.27;;;5.80;;
10088;SDS011;51898;49.864;8.550;2023-10-09T13:17:19;8.27;;;5.20;;
10088;SDS011;51898;49.864;8.550;2023-10-09T13:20:22;11.67;;;5.40;;
10088;SDS011;51898;49.864;8.550;2023-10-09T13:23:25;13.00;;;6.00;;
10088;SDS011;51898;49.864;8.550;2023-10-09T13:26:35;9.17;;;4.87;;
10088;SDS011;51898;49.864;8.550;2023-10-09T13:29:37;14.43;;;6.20;;
10088;SDS011;51898;49.864;8.550;2023-10-09T13:32:42;9.83;;;5.30;;
10088;SDS011;51898;49.864;8.550;2023-10-09T13:35:49;9.77;;;5.23;;
10088;SDS011;51898;49.864;8.550;2023-10-09T13:38:58;17.07;;;5.40;;
10088;SDS011;51898;49.864;8.550;2023-10-09T13:42:20;11.40;;;5.63;;
10088;SDS011;51898;49.864;8.550;2023-10-09T13:45:26;12.40;;;5.27;;
10088;SDS011;51898;49.864;8.550;2023-10-09T13:48:29;7.20;;;4.97;;
10088;SDS011;51898;49.864;8.550;2023-10-09T13:51:42;9.17;;;5.20;;
10088;SDS011;51898;49.864;8.550;2023-10-09T13:54:45;12.37;;;5.77;;
10088;SDS011;51898;49.864;8.550;2023-10-09T13:57:51;6.83;;;5.00;;
10088;SDS011;51898;49.864;8.550;2023-10-09T14:00:54;10.00;;;5.10;;
10088;SDS011;51898;49.864;8.550;2023-10-09T14:03:58;13.53;;;4.80;;
10088;SDS011;51898;49.864;8.550;2023-10-09T14:07:01;9.87;;;5.30;;
10088;SDS011;51898;49.864;8.550;2023-10-09T14:10:06;12.33;;;6.07;;
10088;SDS011;51898;49.864;8.550;2023-10-09T14:13:18;13.93;;;6.17;;
10088;SDS011;51898;49.864;8.550;2023-10-09T14:16:27;10.43;;;5.57;;
10088;SDS011;51898;49.864;8.550;2023-10-09T14:19:29;12.00;;;5.87;;
10088;SDS011;51898;49.864;8.550;2023-10-09T14:22:34;11.43;;;5.70;;
10088;SDS011;51898;49.864;8.550;2023-10-09T14:25:39;11.47;;;5.97;;
10088;SDS011;51898;49.864;8.550;2023-10-09T14:28:41;14.80;;;5.47;;
10088;SDS011;51898;49.864;8.550;2023-10-09T14:31:44;10.93;;;5.50;;
10088;SDS011;51898;49.864;8.550;2023-10-09T14:34:50;10.00;;;5.23;;
10088;SDS011;51898;49.864;8.550;2023-10-09T14:37:53;10.30;;;5.50;;
10088;SDS011;51898;49.864;8.550;2023-10-09T14:40:55;10.23;;;5.43;;
10088;SDS011;51898;49.864;8.550;2023-10-09T14:44:00;14.73;;;5.57;;
10088;SDS011;51898;49.864;8.550;2023-10-09T14:47:03;10.23;;;5.10;;
10088;SDS011;51898;49.864;8.550;2023-10-09T14:50:07;13.67;;;5.77;;
10088;SDS011;51898;49.864;8.550;2023-10-09T14:53:10;11.87;;;5.73;;
10088;SDS011;51898;49.864;8.550;2023-10-09T14:56:14;15.43;;;5.43;;
10088;SDS011;51898;49.864;8.550;2023-10-09T14:59:19;17.83;;;6.10;;
10088;SDS011;51898;49.864;8.550;2023-10-09T15:02:20;16.07;;;6.07;;
10088;SDS011;51898;49.864;8.550;2023-10-09T15:05:24;12.73;;;5.07;;
10088;SDS011;51898;49.864;8.550;2023-10-09T15:08:26;26.20;;;6.30;;
10088;SDS011;51898;49.864;8.550;2023-10-09T15:11:28;12.27;;;6.23;;
10088;SDS011;51898;49.864;8.550;2023-10-09T15:14:30;7.53;;;4.43;;
10088;SDS011;51898;49.864;8.550;2023-10-09T15:17:33;11.87;;;5.60;;
10088;SDS011;51898;49.864;8.550;2023-10-09T15:20:35;12.13;;;5.30;;
10088;SDS011;51898;49.864;8.550;2023-10-09T15:23:37;12.37;;;5.80;;
10088;SDS011;51898;49.864;8.550;2023-10-09T15:26:38;10.90;;;5.30;;
10088;SDS011;51898;49.864;8.550;2023-10-09T15:29:41;10.37;;;5.67;;
10088;SDS011;51898;49.864;8.550;2023-10-09T15:32:45;10.40;;;5.77;;
10088;SDS011;51898;49.864;8.550;2023-10-09T15:35:47;13.60;;;5.90;;
10088;SDS011;51898;49.864;8.550;2023-10-09T15:38:50;16.03;;;5.93;;
10088;SDS011;51898;49.864;8.550;2023-10-09T15:41:52;9.10;;;5.83;;
10088;SDS011;51898;49.864;8.550;2023-10-09T15:44:54;11.60;;;6.13;;
10088;SDS011;51898;49.864;8.550;2023-10-09T15:47:56;18.33;;;6.17;;
10088;SDS011;51898;49.864;8.550;2023-10-09T15:50:58;14.37;;;5.53;;
10088;SDS011;51898;49.864;8.550;2023-10-09T15:54:01;13.33;;;6.10;;
10088;SDS011;51898;49.864;8.550;2023-10-09T15:57:03;9.23;;;5.37;;
10088;SDS011;51898;49.864;8.550;2023-10-09T16:00:14;15.07;;;6.20;;
10088;SDS011;51898;49.864;8.550;2023-10-09T16:03:19;9.83;;;5.60;;
10088;SDS011;51898;49.864;8.550;2023-10-09T16:06:21;10.10;;;5.83;;
10088;SDS011;51898;49.864;8.550;2023-10-09T16:09:28;16.73;;;5.90;;
10088;SDS011;51898;49.864;8.550;2023-10-09T16:12:32;12.43;;;5.40;;
10088;SDS011;51898;49.864;8.550;2023-10-09T16:15:34;11.73;;;5.60;;
10088;SDS011;51898;49.864;8.550;2023-10-09T16:18:42;9.57;;;5.57;;
10088;SDS011;51898;49.864;8.550;2023-10-09T16:21:44;13.83;;;5.60;;
10088;SDS011;51898;49.864;8.550;2023-10-09T16:24:48;14.47;;;6.60;;
10088;SDS011;51898;49.864;8.550;2023-10-09T16:27:51;11.07;;;6.30;;
10088;SDS011;51898;49.864;8.550;2023-10-09T16:30:54;8.90;;;6.00;;
10088;SDS011;51898;49.864;8.550;2023-10-09T16:33:58;10.87;;;6.10;;
10088;SDS011;51898;49.864;8.550;2023-10-09T16:36:59;12.17;;;5.90;;
10088;SDS011;51898;49.864;8.550;2023-10-09T16:40:01;22.03;;;7.03;;
10088;SDS011;51898;49.864;8.550;2023-10-09T16:43:07;11.47;;;6.10;;
10088;SDS011;51898;49.864;8.550;2023-10-09T16:46:14;11.30;;;5.47;;
10088;SDS011;51898;49.864;8.550;2023-10-09T16:49:18;12.60;;;6.13;;
10088;SDS011;51898;49.864;8.550;2023-10-09T16:52:20;10.50;;;6.60;;
10088;SDS011;51898;49.864;8.550;2023-10-09T16:55:22;9.60;;;6.30;;
10088;SDS011;51898;49.864;8.550;2023-10-09T16:58:26;12.43;;;6.50;;
10088;SDS011;51898;49.864;8.550;2023-10-09T17:01:27;13.00;;;6.40;;
10088;SDS011;51898;49.864;8.550;2023-10-09T17:04:29;27.97;;;6.90;;
10088;SDS011;51898;49.864;8.550;2023-10-09T17:07:34;21.53;;;6.33;;
10088;SDS011;51898;49.864;8.550;2023-10-09T17:10:36;14.73;;;6.30;;
10088;SDS011;51898;49.864;8.550;2023-10-09T17:13:46;15.23;;;6.23;;
10088;SDS011;51898;49.864;8.550;2023-10-09T17:16:53;15.83;;;6.27;;
10088;SDS011;51898;49.864;8.550;2023-10-09T17:20:00;22.30;;;9.43;;
10088;SDS011;51898;49.864;8.550;2023-10-09T17:23:11;16.80;;;7.33;;
10088;SDS011;51898;49.864;8.550;2023-10-09T17:26:13;11.13;;;6.13;;
10088;SDS011;51898;49.864;8.550;2023-10-09T17:29:19;16.53;;;7.00;;
10088;SDS011;51898;49.864;8.550;2023-10-09T17:32:21;15.40;;;7.30;;
10088;SDS011;51898;49.864;8.550;2023-10-09T17:35:23;15.57;;;7.00;;
10088;SDS011;51898;49.864;8.550;2023-10-09T17:38:25;11.37;;;6.60;;
10088;SDS011;51898;49.864;8.550;2023-10-09T17:41:27;13.43;;;6.80;;
10088;SDS011;51898;49.864;8.550;2023-10-09T17:44:32;14.27;;;6.40;;
10088;SDS011;51898;49.864;8.550;2023-10-09T17:47:34;12.87;;;6.83;;
10088;SDS011;51898;49.864;8.550;2023-10-09T17:50:36;10.20;;;6.57;;
10088;SDS011;51898;49.864;8.550;2023-10-09T17:53:42;14.33;;;6.80;;
10088;SDS011;51898;49.864;8.550;2023-10-09T17:56:44;13.63;;;6.93;;
10088;SDS011;51898;49.864;8.550;2023-10-09T17:59:46;14.60;;;6.80;;
10088;SDS011;51898;49.864;8.550;2023-10-09T18:02:48;13.73;;;7.07;;
10088;SDS011;51898;49.864;8.550;2023-10-09T18:05:51;18.43;;;6.63;;
10088;SDS011;51898;49.864;8.550;2023-10-09T18:08:52;13.50;;;7.40;;
10088;SDS011;51898;49.864;8.550;2023-10-09T18:11:54;12.53;;;7.70;;
10088;SDS011;51898;49.864;8.550;2023-10-09T18:14:57;15.10;;;7.50;;
10088;SDS011;51898;49.864;8.550;2023-10-09T18:18:00;16.93;;;7.00;;
10088;SDS011;51898;49.864;8.550;2023-10-09T18:21:03;14.73;;;6.90;;
10088;SDS011;51898;49.864;8.550;2023-10-09T18:24:07;14.67;;;6.53;;
10088;SDS011;51898;49.864;8.550;2023-10-09T18:27:15;13.47;;;6.40;;
10088;SDS011;51898;49.864;8.550;2023-10-09T18:30:18;12.00;;;6.17;;
10088;SDS011;51898;49.864;8.550;2023-10-09T18:33:19;12.23;;;7.00;;
10088;SDS011;51898;49.864;8.550;2023-10-09T18:36:21;14.10;;;7.03;;
10088;SDS011;51898;49.864;8.550;2023-10-09T18:39:23;15.50;;;6.80;;